Time;durP1;ratioP1;P1;durP2;ratioP2;P2;SDS_P1;SDS_P2;PMS_P1;PMS_P2;Temp;Humidity;BMP_temperature;BMP_pressure;BME280_temperature;BME280_humidity;BME280_pressure;Samples;Min_cycle;Max_cycle;Signal;HPM_P1;HPM_P2
2022/10/24 00:02:17;;;;;;;40.72;37.55;;;;;;;;;;5114266;28;20039;-62
2022/10/24 00:04:43;;;;;;;42.50;38.97;;;;;;;;;;5113971;28;20432;-65
2022/10/24 00:07:10;;;;;;;41.78;38.00;;;;;;;;;;5113881;28;20024;-63
2022/10/24 00:09:36;;;;;;;42.67;38.88;;;;;;;;;;5114205;28;20058;-63
2022/10/24 00:12:03;;;;;;;41.15;37.72;;;;;;;;;;5113879;28;20035;-63
2022/10/24 00:14:29;;;;;;;41.85;38.45;;;;;;;;;;5113908;28;20149;-67
2022/10/24 00:16:55;;;;;;;41.95;38.45;;;;;;;;;;5113472;28;20028;-63
2022/10/24 00:19:21;;;;;;;42.15;38.95;;;;;;;;;;5113551;28;20119;-63
2022/10/24 00:21:47;;;;;;;41.03;37.63;;;;;;;;;;5114014;28;20027;-63
2022/10/24 00:24:13;;;;;;;41.05;37.33;;;;;;;;;;5113749;28;20027;-62
2022/10/24 00:26:39;;;;;;;41.60;38.10;;;;;;;;;;5113517;28;20472;-63
2022/10/24 00:29:05;;;;;;;39.78;36.40;;;;;;;;;;5113621;28;20088;-62
2022/10/24 00:31:31;;;;;;;40.42;37.30;;;;;;;;;;5113362;28;20024;-63
2022/10/24 00:33:58;;;;;;;41.78;38.47;;;;;;;;;;5113155;28;20098;-62
2022/10/24 00:36:25;;;;;;;41.47;38.08;;;;;;;;;;5113232;28;20491;-63
2022/10/24 00:38:51;;;;;;;39.85;36.55;;;;;;;;;;5112119;28;20110;-63
2022/10/24 00:41:19;;;;;;;39.22;35.90;;;;;;;;;;5111976;28;20026;-63
2022/10/24 00:43:45;;;;;;;39.22;35.80;;;;;;;;;;5113148;28;20070;-62
2022/10/24 00:46:11;;;;;;;39.78;36.63;;;;;;;;;;5111845;28;20043;-64
2022/10/24 00:48:41;;;;;;;40.25;36.75;;;;;;;;;;5113230;28;20027;-63
2022/10/24 00:51:10;;;;;;;37.35;34.13;;;;;;;;;;5113137;28;20034;-63
2022/10/24 00:53:36;;;;;;;;;;;;;;;;;;5113208;28;20057;-60
2022/10/24 00:56:04;;;;;;;37.92;34.60;;;;;;;;;;5113025;28;19988;-63
2022/10/24 00:58:32;;;;;;;38.58;35.35;;;;;;;;;;5113122;28;20027;-63
2022/10/24 01:00:58;;;;;;;38.58;35.35;;;;;;;;;;5114806;28;20020;-62
2022/10/24 01:03:24;;;;;;;40.17;36.70;;;;;;;;;;5114760;28;20064;-63
2022/10/24 01:05:59;;;;;;;38.28;35.05;;;;;;;;;;5114179;28;20031;-63
2022/10/24 01:08:31;;;;;;;37.72;34.42;;;;;;;;;;5113001;28;20023;-63
2022/10/24 01:11:13;;;;;;;38.15;34.88;;;;;;;;;;5112062;28;20037;-63
2022/10/24 01:13:59;;;;;;;38.13;34.88;;;;;;;;;;5112333;28;20019;-61
2022/10/24 01:16:35;;;;;;;39.17;35.72;;;;;;;;;;5113706;28;20456;-62
2022/10/24 01:19:01;;;;;;;38.40;35.03;;;;;;;;;;5094661;28;20062;-63
2022/10/24 01:21:32;;;;;;;38.25;35.03;;;;;;;;;;5091493;28;20060;-63
2022/10/24 01:24:17;;;;;;;37.80;34.70;;;;;;;;;;5090628;28;20051;-63
2022/10/24 01:26:58;;;;;;;37.47;34.40;;;;;;;;;;5092193;28;20480;-62
2022/10/24 01:29:43;;;;;;;37.70;34.50;;;;;;;;;;5092418;28;20020;-62
2022/10/24 01:32:29;;;;;;;38.10;35.15;;;;;;;;;;5092370;28;20032;-60
2022/10/24 01:34:55;;;;;;;37.28;34.28;;;;;;;;;;5076459;28;20059;-63
2022/10/24 01:37:25;;;;;;;38.75;35.50;;;;;;;;;;5092073;28;20063;-63
2022/10/24 01:39:53;;;;;;;37.08;34.00;;;;;;;;;;5091071;28;20024;-64
2022/10/24 01:42:21;;;;;;;36.03;33.05;;;;;;;;;;5092073;28;20445;-63
2022/10/24 01:44:48;;;;;;;35.50;31.92;;;;;;;;;;5091729;28;20035;-63
2022/10/24 01:47:19;;;;;;;35.83;32.77;;;;;;;;;;5092097;28;20039;-63
2022/10/24 01:49:49;;;;;;;34.90;32.15;;;;;;;;;;5092229;28;20020;-63
2022/10/24 01:52:16;;;;;;;36.30;33.25;;;;;;;;;;5092042;28;20024;-63
2022/10/24 01:54:43;;;;;;;35.70;32.65;;;;;;;;;;5091904;28;20088;-63
2022/10/24 01:57:09;;;;;;;36.10;33.33;;;;;;;;;;5092049;28;20373;-63
2022/10/24 01:59:35;;;;;;;35.40;32.10;;;;;;;;;;5091789;28;20020;-63
2022/10/24 02:02:04;;;;;;;38.03;33.00;;;;;;;;;;5092033;28;20039;-64
2022/10/24 02:04:31;;;;;;;35.53;32.63;;;;;;;;;;5090502;28;20035;-64
2022/10/24 02:06:58;;;;;;;35.88;33.08;;;;;;;;;;5091732;28;20035;-63
2022/10/24 02:09:24;;;;;;;34.60;31.63;;;;;;;;;;5091967;28;20495;-60
2022/10/24 02:11:51;;;;;;;34.03;31.30;;;;;;;;;;5091914;28;20024;-64
2022/10/24 02:14:17;;;;;;;34.08;31.13;;;;;;;;;;5091835;28;20538;-63
2022/10/24 02:16:44;;;;;;;31.02;28.25;;;;;;;;;;5090634;28;20020;-64
2022/10/24 02:19:10;;;;;;;30.50;27.75;;;;;;;;;;5091898;28;20024;-63
2022/10/24 02:21:58;;;;;;;29.23;26.55;;;;;;;;;;5090544;28;20020;-64
2022/10/24 02:24:28;;;;;;;28.35;25.75;;;;;;;;;;5090367;28;20032;-64
2022/10/24 02:26:56;;;;;;;26.85;24.17;;;;;;;;;;5091957;28;20444;-63
2022/10/24 02:29:22;;;;;;;;;;;;;;;;;;5092234;28;20587;-63
2022/10/24 02:31:50;;;;;;;26.85;24.25;;;;;;;;;;5091776;28;19999;-64
2022/10/24 02:34:17;;;;;;;27.35;23.10;;;;;;;;;;5091403;28;20020;-64
2022/10/24 02:36:44;;;;;;;25.95;22.17;;;;;;;;;;5092574;28;20408;-64
2022/10/24 02:39:11;;;;;;;23.77;21.38;;;;;;;;;;5093185;28;20028;-63
2022/10/24 02:41:40;;;;;;;23.80;21.40;;;;;;;;;;5090580;28;20214;-64
2022/10/24 02:44:06;;;;;;;22.90;17.73;;;;;;;;;;5091313;28;20028;-64
2022/10/24 02:46:33;;;;;;;22.83;15.40;;;;;;;;;;5092269;28;20485;-64
2022/10/24 02:49:01;;;;;;;21.13;13.63;;;;;;;;;;5093900;28;20028;-64
2022/10/24 02:51:29;;;;;;;20.88;12.98;;;;;;;;;;5095181;28;20035;-64
2022/10/24 02:53:55;;;;;;;21.17;12.48;;;;;;;;;;5094952;28;20020;-65
2022/10/24 02:56:21;;;;;;;19.65;12.00;;;;;;;;;;5097072;28;20022;-64
2022/10/24 02:58:47;;;;;;;20.25;11.57;;;;;;;;;;5095904;28;20016;-64
2022/10/24 03:01:13;;;;;;;21.20;11.35;;;;;;;;;;5106719;28;20023;-65
2022/10/24 03:03:39;;;;;;;20.25;11.02;;;;;;;;;;5115342;28;20063;-64
2022/10/24 03:06:05;;;;;;;18.95;10.63;;;;;;;;;;5097369;28;20038;-62
2022/10/24 03:08:31;;;;;;;21.02;9.77;;;;;;;;;;5095256;28;20070;-64
2022/10/24 03:10:57;;;;;;;18.95;9.52;;;;;;;;;;5094858;28;20032;-63
2022/10/24 03:13:23;;;;;;;19.55;9.82;;;;;;;;;;5102272;28;20020;-65
2022/10/24 03:15:49;;;;;;;17.33;9.82;;;;;;;;;;5115291;28;20023;-64
2022/10/24 03:18:15;;;;;;;17.73;9.38;;;;;;;;;;5113939;28;20364;-65
2022/10/24 03:20:41;;;;;;;19.00;9.75;;;;;;;;;;5113788;28;20127;-64
2022/10/24 03:23:07;;;;;;;16.83;9.10;;;;;;;;;;5115700;28;20055;-64
2022/10/24 03:25:33;;;;;;;22.30;8.88;;;;;;;;;;5115276;28;20164;-64
2022/10/24 03:27:59;;;;;;;16.58;8.68;;;;;;;;;;5115214;28;20047;-64
2022/10/24 03:30:25;;;;;;;16.38;8.85;;;;;;;;;;5107945;28;20475;-64
2022/10/24 03:32:51;;;;;;;18.50;9.82;;;;;;;;;;5095279;28;20024;-63
2022/10/24 03:35:17;;;;;;;16.95;9.15;;;;;;;;;;5094377;28;20726;-65
2022/10/24 03:37:43;;;;;;;17.25;8.93;;;;;;;;;;5094487;28;20039;-64
2022/10/24 03:40:10;;;;;;;19.70;9.48;;;;;;;;;;5093605;28;20024;-65
2022/10/24 03:42:36;;;;;;;18.02;9.07;;;;;;;;;;5094443;28;20052;-64
2022/10/24 03:45:02;;;;;;;16.60;8.50;;;;;;;;;;5093882;28;20028;-65
2022/10/24 03:47:28;;;;;;;17.30;8.45;;;;;;;;;;5094345;28;20034;-63
2022/10/24 03:49:54;;;;;;;17.20;8.40;;;;;;;;;;5094106;28;20020;-65
2022/10/24 03:52:20;;;;;;;17.88;8.95;;;;;;;;;;5093218;28;20050;-65
2022/10/24 03:54:46;;;;;;;18.15;8.90;;;;;;;;;;5093875;28;20399;-64
2022/10/24 03:57:12;;;;;;;15.77;8.32;;;;;;;;;;5092331;28;20016;-64
2022/10/24 03:59:38;;;;;;;16.65;8.25;;;;;;;;;;5094337;28;20024;-65
2022/10/24 04:02:05;;;;;;;22.67;9.23;;;;;;;;;;5094532;28;20028;-63
2022/10/24 04:04:31;;;;;;;20.00;8.85;;;;;;;;;;5094110;28;20039;-64
2022/10/24 04:06:59;;;;;;;18.88;8.07;;;;;;;;;;5094513;28;20020;-64
2022/10/24 04:09:27;;;;;;;18.13;8.93;;;;;;;;;;5097495;28;20035;-65
2022/10/24 04:11:53;;;;;;;16.95;8.07;;;;;;;;;;5096120;28;20085;-63
2022/10/24 04:14:20;;;;;;;17.35;8.55;;;;;;;;;;5093052;28;20024;-64
2022/10/24 04:16:46;;;;;;;18.70;8.52;;;;;;;;;;5092739;28;20030;-64
2022/10/24 04:19:12;;;;;;;16.50;8.23;;;;;;;;;;5093705;28;20387;-63
2022/10/24 04:21:38;;;;;;;18.05;9.27;;;;;;;;;;5093793;28;20040;-64
2022/10/24 04:24:04;;;;;;;19.25;9.07;;;;;;;;;;5091937;28;20053;-64
2022/10/24 04:26:30;;;;;;;20.05;7.80;;;;;;;;;;5093520;28;20028;-64
2022/10/24 04:28:56;;;;;;;18.02;8.23;;;;;;;;;;5091843;28;20024;-64
2022/10/24 04:31:22;;;;;;;19.90;8.00;;;;;;;;;;5094358;28;20425;-64
2022/10/24 04:33:48;;;;;;;16.70;8.18;;;;;;;;;;5115384;28;20028;-65
2022/10/24 04:36:14;;;;;;;18.40;8.13;;;;;;;;;;5113429;28;20031;-65
2022/10/24 04:38:40;;;;;;;19.83;7.72;;;;;;;;;;5113333;28;20391;-65
2022/10/24 04:41:06;;;;;;;22.42;8.38;;;;;;;;;;5113224;28;20027;-64
2022/10/24 04:43:32;;;;;;;19.60;8.35;;;;;;;;;;5112965;28;20031;-64
2022/10/24 04:45:58;;;;;;;19.17;7.57;;;;;;;;;;5122170;22;20048;-64
2022/10/24 04:48:24;;;;;;;17.65;8.25;;;;;;;;;;5092426;28;20028;-64
2022/10/24 04:50:50;;;;;;;20.45;8.93;;;;;;;;;;5074151;28;20032;-65
2022/10/24 04:53:16;;;;;;;15.90;8.05;;;;;;;;;;5092797;28;20020;-64
2022/10/24 04:55:42;;;;;;;17.33;8.80;;;;;;;;;;5092362;28;20082;-65
2022/10/24 04:58:08;;;;;;;15.98;8.43;;;;;;;;;;5074158;28;20024;-63
2022/10/24 05:00:34;;;;;;;16.25;8.10;;;;;;;;;;5092120;28;20028;-65
2022/10/24 05:03:00;;;;;;;19.73;8.07;;;;;;;;;;5092095;28;20028;-65
2022/10/24 05:05:26;;;;;;;20.25;8.68;;;;;;;;;;5092094;28;20039;-65
2022/10/24 05:07:52;;;;;;;18.27;8.38;;;;;;;;;;5091766;28;20361;-65
2022/10/24 05:10:18;;;;;;;18.95;8.70;;;;;;;;;;5091880;28;20050;-65
2022/10/24 05:12:44;;;;;;;17.25;8.02;;;;;;;;;;5091680;28;20082;-65
2022/10/24 05:15:13;;;;;;;17.65;8.27;;;;;;;;;;5091605;28;20028;-65
2022/10/24 05:17:39;;;;;;;18.92;8.70;;;;;;;;;;5073547;28;20495;-65
2022/10/24 05:20:06;;;;;;;17.95;7.93;;;;;;;;;;5091826;28;20067;-65
2022/10/24 05:22:32;;;;;;;19.02;8.20;;;;;;;;;;5073497;28;20050;-64
2022/10/24 05:24:58;;;;;;;21.35;9.30;;;;;;;;;;5073381;28;20024;-65
2022/10/24 05:27:24;;;;;;;18.80;8.43;;;;;;;;;;5091664;28;20024;-64
2022/10/24 05:29:51;;;;;;;18.60;7.90;;;;;;;;;;5091906;28;20023;-65
2022/10/24 05:32:17;;;;;;;16.80;8.35;;;;;;;;;;5073174;28;20388;-63
2022/10/24 05:34:43;;;;;;;16.52;8.25;;;;;;;;;;5091385;28;20383;-63
2022/10/24 05:37:09;;;;;;;21.23;8.50;;;;;;;;;;5091256;28;20031;-63
2022/10/24 05:39:35;;;;;;;19.55;8.60;;;;;;;;;;5091250;28;20028;-64
2022/10/24 05:42:02;;;;;;;19.75;8.93;;;;;;;;;;5091306;28;20109;-63
2022/10/24 05:44:28;;;;;;;18.95;8.40;;;;;;;;;;5091124;28;20024;-63
2022/10/24 05:46:54;;;;;;;18.55;8.00;;;;;;;;;;5091116;28;20043;-63
2022/10/24 05:49:21;;;;;;;20.35;8.43;;;;;;;;;;5072828;28;20028;-64
2022/10/24 05:51:47;;;;;;;18.73;7.93;;;;;;;;;;5091299;28;20024;-63
2022/10/24 05:54:13;;;;;;;18.92;7.82;;;;;;;;;;5090549;28;20086;-63
2022/10/24 05:56:39;;;;;;;18.13;8.00;;;;;;;;;;5072981;28;20070;-64
2022/10/24 05:59:05;;;;;;;18.73;7.53;;;;;;;;;;5073294;28;20017;-66
2022/10/24 06:01:31;;;;;;;20.17;7.93;;;;;;;;;;5091326;28;20434;-64
2022/10/24 06:03:57;;;;;;;19.20;8.32;;;;;;;;;;5090869;28;20414;-63
2022/10/24 06:06:24;;;;;;;16.65;7.50;;;;;;;;;;5072814;28;20034;-64
2022/10/24 06:08:50;;;;;;;21.50;8.25;;;;;;;;;;5091116;28;20035;-64
2022/10/24 06:11:47;;;;;;;15.15;7.68;;;;;;;;;;5094368;28;20028;-68
2022/10/24 06:14:15;;;;;;;16.52;8.07;;;;;;;;;;5087431;28;20216;-64
2022/10/24 06:16:41;;;;;;;17.98;8.00;;;;;;;;;;5073346;28;20476;-65
2022/10/24 06:19:07;;;;;;;19.52;8.40;;;;;;;;;;5091481;28;20063;-64
2022/10/24 06:21:33;;;;;;;17.77;8.85;;;;;;;;;;5095101;28;20020;-64
2022/10/24 06:23:59;;;;;;;17.50;7.50;;;;;;;;;;5094827;28;20116;-64
2022/10/24 06:26:25;;;;;;;16.35;7.38;;;;;;;;;;5094478;28;20028;-64
2022/10/24 06:28:52;;;;;;;17.63;8.48;;;;;;;;;;5076433;28;20107;-64
2022/10/24 06:31:19;;;;;;;17.20;8.88;;;;;;;;;;5094439;28;20091;-64
2022/10/24 06:33:45;;;;;;;17.85;7.30;;;;;;;;;;5094073;28;20097;-64
2022/10/24 06:36:13;;;;;;;19.58;7.47;;;;;;;;;;5095703;28;20464;-64
2022/10/24 06:38:39;;;;;;;18.02;7.80;;;;;;;;;;5095241;28;20085;-63
2022/10/24 06:41:06;;;;;;;16.30;7.50;;;;;;;;;;5094723;28;20127;-63
2022/10/24 06:43:32;;;;;;;18.42;8.05;;;;;;;;;;5093844;28;20073;-64
2022/10/24 06:45:58;;;;;;;19.63;8.18;;;;;;;;;;5093968;28;20092;-65
2022/10/24 06:48:24;;;;;;;18.58;8.45;;;;;;;;;;5076057;28;20122;-63
2022/10/24 06:50:50;;;;;;;18.80;7.75;;;;;;;;;;5094203;28;20348;-63
2022/10/24 06:53:16;;;;;;;20.27;7.78;;;;;;;;;;5075291;28;20020;-64
2022/10/24 06:55:42;;;;;;;18.08;7.80;;;;;;;;;;5094374;28;20024;-64
2022/10/24 06:58:08;;;;;;;16.00;7.38;;;;;;;;;;5093899;28;20098;-63
2022/10/24 07:00:34;;;;;;;22.55;8.45;;;;;;;;;;5076167;28;20605;-64
2022/10/24 07:03:00;;;;;;;21.65;8.63;;;;;;;;;;5075950;28;20020;-65
2022/10/24 07:05:26;;;;;;;15.90;7.03;;;;;;;;;;5094496;28;20081;-64
2022/10/24 07:07:52;;;;;;;19.40;7.25;;;;;;;;;;5093989;28;20530;-65
2022/10/24 07:10:18;;;;;;;19.40;7.63;;;;;;;;;;5093621;28;20115;-65
2022/10/24 07:12:44;;;;;;;20.15;7.85;;;;;;;;;;5094122;28;20476;-66
2022/10/24 07:15:10;;;;;;;16.50;8.20;;;;;;;;;;5093567;28;20115;-64
2022/10/24 07:17:41;;;;;;;22.05;7.93;;;;;;;;;;5075333;28;20039;-66
2022/10/24 07:20:07;;;;;;;19.30;6.93;;;;;;;;;;5093797;28;20099;-65
2022/10/24 07:22:33;;;;;;;16.48;7.40;;;;;;;;;;5093850;28;20022;-66
2022/10/24 07:24:59;;;;;;;16.92;7.45;;;;;;;;;;5075395;28;20024;-66
2022/10/24 07:27:25;;;;;;;16.92;7.68;;;;;;;;;;5075672;28;20042;-65
2022/10/24 07:29:51;;;;;;;20.10;7.78;;;;;;;;;;5094133;28;20448;-67
2022/10/24 07:32:18;;;;;;;17.75;7.90;;;;;;;;;;5093051;28;20020;-66
2022/10/24 07:34:46;;;;;;;14.10;6.78;;;;;;;;;;5075342;28;20020;-65
2022/10/24 07:37:12;;;;;;;14.88;7.20;;;;;;;;;;5075669;28;20492;-66
2022/10/24 07:39:39;;;;;;;18.92;7.70;;;;;;;;;;5093690;28;20028;-66
2022/10/24 07:42:05;;;;;;;16.23;7.40;;;;;;;;;;5063628;28;20053;-64
2022/10/24 07:44:31;;;;;;;15.40;7.45;;;;;;;;;;5072893;28;20100;-65
2022/10/24 07:46:57;;;;;;;15.77;7.55;;;;;;;;;;5054334;28;20193;-65
2022/10/24 07:49:23;;;;;;;17.25;7.82;;;;;;;;;;5055147;28;20073;-65
2022/10/24 07:51:49;;;;;;;16.60;7.72;;;;;;;;;;5071748;28;20077;-65
2022/10/24 07:54:15;;;;;;;16.55;6.75;;;;;;;;;;5073032;28;20021;-64
2022/10/24 07:56:41;;;;;;;17.30;7.38;;;;;;;;;;5073020;28;20024;-63
2022/10/24 07:59:07;;;;;;;15.43;7.28;;;;;;;;;;5069724;28;20111;-67
2022/10/24 08:01:33;;;;;;;15.40;7.22;;;;;;;;;;5093300;28;20131;-64
2022/10/24 08:03:59;;;;;;;15.98;7.82;;;;;;;;;;5092750;28;20030;-65
2022/10/24 08:06:28;;;;;;;15.82;7.40;;;;;;;;;;5093102;28;20031;-69
2022/10/24 08:08:54;;;;;;;15.45;7.53;;;;;;;;;;5092999;28;20388;-64
2022/10/24 08:11:22;;;;;;;16.27;7.50;;;;;;;;;;5084934;28;20149;-64
2022/10/24 08:13:49;;;;;;;15.27;7.43;;;;;;;;;;5073407;28;20020;-64
2022/10/24 08:16:15;;;;;;;15.32;7.70;;;;;;;;;;5093019;28;20024;-65
2022/10/24 08:18:42;;;;;;;17.23;7.82;;;;;;;;;;5093427;28;20475;-65
2022/10/24 08:21:11;;;;;;;14.55;7.03;;;;;;;;;;5093341;28;20028;-65
2022/10/24 08:23:38;;;;;;;15.52;7.25;;;;;;;;;;5093055;28;20028;-65
2022/10/24 08:26:08;;;;;;;15.98;7.68;;;;;;;;;;5092995;28;20032;-65
2022/10/24 08:28:35;;;;;;;19.05;7.50;;;;;;;;;;5074680;28;20028;-65
2022/10/24 08:31:02;;;;;;;17.45;7.70;;;;;;;;;;5093003;28;20245;-65
2022/10/24 08:33:28;;;;;;;14.73;7.60;;;;;;;;;;5092768;28;20031;-67
2022/10/24 08:35:56;;;;;;;18.65;8.05;;;;;;;;;;5092815;28;20020;-63
2022/10/24 08:38:22;;;;;;;15.85;7.68;;;;;;;;;;5092927;28;20016;-66
2022/10/24 08:40:48;;;;;;;16.02;7.70;;;;;;;;;;5092805;28;20513;-66
2022/10/24 08:43:15;;;;;;;17.42;8.13;;;;;;;;;;5092395;28;20055;-65
2022/10/24 08:45:49;;;;;;;17.80;7.97;;;;;;;;;;5091284;28;20020;-64
2022/10/24 08:48:19;;;;;;;17.60;7.55;;;;;;;;;;5092635;28;20070;-64
2022/10/24 08:50:49;;;;;;;16.73;7.50;;;;;;;;;;5074187;28;20031;-64
2022/10/24 08:53:15;;;;;;;17.92;8.25;;;;;;;;;;5091562;28;20495;-65
2022/10/24 08:55:45;;;;;;;17.38;7.50;;;;;;;;;;5074037;28;20487;-65
2022/10/24 08:58:18;;;;;;;15.45;8.07;;;;;;;;;;5099624;28;20099;-64
2022/10/24 09:00:45;;;;;;;14.30;7.47;;;;;;;;;;5112781;28;20102;-60
2022/10/24 09:03:17;;;;;;;16.53;7.10;;;;;;;;;;5112141;28;20487;-64
2022/10/24 09:05:49;;;;;;;18.27;7.60;;;;;;;;;;5112283;28;20297;-65
2022/10/24 09:08:21;;;;;;;20.98;7.93;;;;;;;;;;5088060;28;20024;-64
2022/10/24 09:10:51;;;;;;;15.93;7.30;;;;;;;;;;5056435;28;20119;-65
2022/10/24 09:13:18;;;;;;;17.10;7.70;;;;;;;;;;5071484;28;20052;-63
2022/10/24 09:15:45;;;;;;;16.48;7.82;;;;;;;;;;5071749;28;20480;-64
2022/10/24 09:18:34;;;;;;;16.40;7.50;;;;;;;;;;5071702;28;20461;-64
2022/10/24 09:21:01;;;;;;;16.15;7.25;;;;;;;;;;5061202;28;20120;-63
2022/10/24 09:23:28;;;;;;;16.73;7.75;;;;;;;;;;5053567;28;20472;-65
2022/10/24 09:25:55;;;;;;;17.42;7.97;;;;;;;;;;5071731;28;20060;-64
2022/10/24 09:28:22;;;;;;;18.05;8.10;;;;;;;;;;5071564;28;20032;-64
2022/10/24 09:30:48;;;;;;;18.77;7.45;;;;;;;;;;5071158;28;20029;-63
2022/10/24 09:33:23;;;;;;;17.10;7.57;;;;;;;;;;5071091;28;20479;-65
2022/10/24 09:35:50;;;;;;;15.57;7.95;;;;;;;;;;5071667;28;20020;-70
2022/10/24 09:38:24;;;;;;;17.35;7.82;;;;;;;;;;5071404;28;20021;-65
2022/10/24 09:40:51;;;;;;;18.75;7.20;;;;;;;;;;5071396;28;20434;-64
2022/10/24 09:43:22;;;;;;;19.42;7.88;;;;;;;;;;5078523;28;20371;-65
2022/10/24 09:45:48;;;;;;;16.95;7.70;;;;;;;;;;5090264;28;20512;-64
2022/10/24 09:48:15;;;;;;;16.30;7.25;;;;;;;;;;5091451;28;20103;-64
2022/10/24 09:50:41;;;;;;;16.25;8.50;;;;;;;;;;5098057;28;20052;-65
2022/10/24 09:53:18;;;;;;;16.05;7.47;;;;;;;;;;5081920;28;20046;-65
2022/10/24 09:55:45;;;;;;;16.92;7.95;;;;;;;;;;5099551;28;20500;-64
2022/10/24 09:58:17;;;;;;;19.63;8.48;;;;;;;;;;5079893;28;20028;-64
2022/10/24 10:00:43;;;;;;;19.40;8.20;;;;;;;;;;5095767;28;20028;-66
2022/10/24 10:03:18;;;;;;;15.80;7.28;;;;;;;;;;5095331;28;20028;-65
2022/10/24 10:05:46;;;;;;;15.38;7.57;;;;;;;;;;5095862;28;20069;-64
2022/10/24 10:08:17;;;;;;;15.40;7.00;;;;;;;;;;5110925;28;20034;-65
2022/10/24 10:10:43;;;;;;;16.80;7.68;;;;;;;;;;5116268;28;20035;-66
2022/10/24 10:13:17;;;;;;;16.83;7.40;;;;;;;;;;5097775;28;20382;-62
2022/10/24 10:15:43;;;;;;;19.10;7.63;;;;;;;;;;5097966;28;20030;-65
2022/10/24 10:18:28;;;;;;;16.15;7.13;;;;;;;;;;5116134;28;20076;-65
2022/10/24 10:21:02;;;;;;;17.02;7.70;;;;;;;;;;5097554;28;20433;-64
2022/10/24 10:23:28;;;;;;;17.75;8.20;;;;;;;;;;5115731;28;20102;-64
2022/10/24 10:26:13;;;;;;;17.75;8.80;;;;;;;;;;5115857;28;20077;-64
2022/10/24 10:28:45;;;;;;;18.13;7.60;;;;;;;;;;5097992;28;20027;-64
2022/10/24 10:31:12;;;;;;;20.52;8.57;;;;;;;;;;5115514;28;20031;-64
2022/10/24 10:33:42;;;;;;;18.70;8.15;;;;;;;;;;5115141;28;20051;-65
2022/10/24 10:36:16;;;;;;;18.42;8.07;;;;;;;;;;5101541;28;20020;-64
2022/10/24 10:38:48;;;;;;;15.55;7.40;;;;;;;;;;5094912;28;20507;-68
2022/10/24 10:41:37;;;;;;;20.35;8.02;;;;;;;;;;5094810;28;20054;-64
2022/10/24 10:44:21;;;;;;;19.63;7.55;;;;;;;;;;5076372;28;20047;-64
2022/10/24 10:46:57;;;;;;;18.95;7.55;;;;;;;;;;5086449;22;20049;-68
2022/10/24 10:49:26;;;;;;;15.35;7.85;;;;;;;;;;5034478;28;20083;-67
2022/10/24 10:52:02;;;;;;;21.23;8.30;;;;;;;;;;5034113;28;20036;-65
2022/10/24 10:54:43;;;;;;;17.50;7.90;;;;;;;;;;5033761;28;20079;-65
2022/10/24 10:57:12;;;;;;;17.45;8.35;;;;;;;;;;5034011;28;20041;-66
2022/10/24 10:59:48;;;;;;;17.70;8.52;;;;;;;;;;5034291;28;20104;-65
2022/10/24 11:02:14;;;;;;;17.42;8.10;;;;;;;;;;5034030;28;20029;-66
2022/10/24 11:04:58;;;;;;;21.77;8.25;;;;;;;;;;5033596;28;20022;-65
2022/10/24 11:07:33;;;;;;;20.45;8.35;;;;;;;;;;5031859;28;20033;-65
2022/10/24 11:10:02;;;;;;;19.63;8.70;;;;;;;;;;5034608;28;20026;-66
2022/10/24 11:12:36;;;;;;;19.42;8.32;;;;;;;;;;5034539;28;20108;-66
2022/10/24 11:15:02;;;;;;;15.80;8.30;;;;;;;;;;5034080;28;20037;-66
2022/10/24 11:17:34;;;;;;;16.40;8.50;;;;;;;;;;5032977;28;20060;-65
2022/10/24 11:20:26;;;;;;;19.83;9.27;;;;;;;;;;5034267;28;20512;-66
2022/10/24 11:22:56;;;;;;;16.42;8.38;;;;;;;;;;5028616;28;20037;-65
2022/10/24 11:25:34;;;;;;;18.88;8.65;;;;;;;;;;5035303;28;20477;-66
2022/10/24 11:28:07;;;;;;;18.75;9.32;;;;;;;;;;5034187;28;20022;-67
2022/10/24 11:30:40;;;;;;;18.10;8.90;;;;;;;;;;5034373;28;20033;-67
2022/10/24 11:33:09;;;;;;;24.08;9.05;;;;;;;;;;5032873;28;20060;-67
2022/10/24 11:35:39;;;;;;;20.70;9.18;;;;;;;;;;5034344;28;20018;-66
2022/10/24 11:38:12;;;;;;;19.08;9.10;;;;;;;;;;5034168;28;20075;-67
2022/10/24 11:40:41;;;;;;;19.98;8.90;;;;;;;;;;5032816;28;20079;-65
2022/10/24 11:43:07;;;;;;;;;;;;;;;;;;5032870;28;20040;-66
2022/10/24 11:45:35;;;;;;;17.45;8.35;;;;;;;;;;5033603;28;19904;-67
2022/10/24 11:48:20;;;;;;;19.40;8.82;;;;;;;;;;5032146;28;20124;-66
2022/10/24 11:50:59;;;;;;;19.98;9.52;;;;;;;;;;5033825;28;20076;-66
2022/10/24 11:53:30;;;;;;;19.60;9.10;;;;;;;;;;5032630;28;20025;-68
2022/10/24 11:55:58;;;;;;;16.90;8.60;;;;;;;;;;5033882;28;20104;-67
2022/10/24 11:58:25;;;;;;;18.45;9.23;;;;;;;;;;5024050;28;20049;-66
2022/10/24 12:01:05;;;;;;;16.50;8.35;;;;;;;;;;5021911;28;20041;-65
2022/10/24 12:03:51;;;;;;;17.42;8.75;;;;;;;;;;5031949;28;20029;-70
2022/10/24 12:06:30;;;;;;;25.23;9.20;;;;;;;;;;5032164;28;20461;-66
2022/10/24 12:08:56;;;;;;;;;;;;;;;;;;5034786;28;20030;-65
2022/10/24 12:11:28;;;;;;;19.85;9.13;;;;;;;;;;5033426;28;20254;-66
2022/10/24 12:14:01;;;;;;;18.25;8.77;;;;;;;;;;5029443;28;20085;-65
2022/10/24 12:16:44;;;;;;;20.98;8.90;;;;;;;;;;5013617;28;20109;-66
2022/10/24 12:19:12;;;;;;;24.63;9.57;;;;;;;;;;5013415;28;20105;-65
2022/10/24 12:21:39;;;;;;;24.00;8.80;;;;;;;;;;5013716;28;20026;-65
2022/10/24 12:24:06;;;;;;;16.75;8.57;;;;;;;;;;5013502;28;20064;-65
2022/10/24 12:26:33;;;;;;;19.50;9.32;;;;;;;;;;5013482;28;20030;-67
2022/10/24 12:29:06;;;;;;;17.40;9.35;;;;;;;;;;5012156;28;20060;-65
2022/10/24 12:31:34;;;;;;;19.17;9.00;;;;;;;;;;5012602;28;20507;-63
2022/10/24 12:34:15;;;;;;;20.57;9.80;;;;;;;;;;5013561;28;20096;-63
2022/10/24 12:37:00;;;;;;;17.35;9.30;;;;;;;;;;5012050;28;20045;-66
2022/10/24 12:39:30;;;;;;;18.33;10.00;;;;;;;;;;5013441;28;20120;-66
2022/10/24 12:41:57;;;;;;;17.92;10.00;;;;;;;;;;5013383;28;20110;-65
2022/10/24 12:44:26;;;;;;;15.50;8.93;;;;;;;;;;5012667;28;20548;-66
2022/10/24 12:46:52;;;;;;;;;;;;;;;;;;5013521;28;20088;-64
2022/10/24 12:49:25;;;;;;;17.70;9.70;;;;;;;;;;5013024;28;20373;-65
2022/10/24 12:51:51;;;;;;;18.05;9.95;;;;;;;;;;5011809;28;20045;-66
2022/10/24 12:54:18;;;;;;;19.67;9.82;;;;;;;;;;5013444;28;20112;-66
2022/10/24 12:56:52;;;;;;;17.88;9.77;;;;;;;;;;5012805;28;20076;-66
2022/10/24 12:59:20;;;;;;;19.90;10.05;;;;;;;;;;5011650;28;20049;-66
2022/10/24 13:01:47;;;;;;;17.20;9.77;;;;;;;;;;5012215;28;20084;-65
2022/10/24 13:04:28;;;;;;;19.08;9.52;;;;;;;;;;5011476;28;20022;-64
2022/10/24 13:07:04;;;;;;;19.55;10.10;;;;;;;;;;5011349;28;20109;-64
2022/10/24 13:09:45;;;;;;;17.55;9.93;;;;;;;;;;5010520;28;20486;-63
2022/10/24 13:12:20;;;;;;;19.58;9.18;;;;;;;;;;5012039;28;20044;-63
2022/10/24 13:14:54;;;;;;;18.05;9.48;;;;;;;;;;5011223;28;20033;-65
2022/10/24 13:17:23;;;;;;;16.52;9.20;;;;;;;;;;5011603;28;20022;-65
2022/10/24 13:20:09;;;;;;;18.85;9.73;;;;;;;;;;5012769;28;20061;-65
2022/10/24 13:22:36;;;;;;;18.20;9.40;;;;;;;;;;4981744;28;20402;-64
2022/10/24 13:25:17;;;;;;;16.30;9.30;;;;;;;;;;5012409;28;20505;-64
2022/10/24 13:27:43;;;;;;;20.67;10.52;;;;;;;;;;5012425;28;20033;-66
2022/10/24 13:30:22;;;;;;;19.90;10.60;;;;;;;;;;5011842;28;20022;-64
2022/10/24 13:32:58;;;;;;;21.05;10.50;;;;;;;;;;5014121;28;20029;-65
2022/10/24 13:35:25;;;;;;;19.35;10.93;;;;;;;;;;5012481;28;20101;-64
2022/10/24 13:37:53;;;;;;;16.48;10.68;;;;;;;;;;5012302;28;20018;-64
2022/10/24 13:40:27;;;;;;;21.80;10.75;;;;;;;;;;5012317;28;20018;-64
2022/10/24 13:42:56;;;;;;;24.40;11.15;;;;;;;;;;5012196;28;20374;-62
2022/10/24 13:45:28;;;;;;;19.65;10.52;;;;;;;;;;5012128;28;20470;-63
2022/10/24 13:47:56;;;;;;;20.15;10.50;;;;;;;;;;5011392;28;20034;-64
2022/10/24 13:50:27;;;;;;;20.35;10.65;;;;;;;;;;5010826;28;20022;-64
2022/10/24 13:53:00;;;;;;;18.35;11.30;;;;;;;;;;5012490;28;20084;-65
2022/10/24 13:55:35;;;;;;;18.50;10.40;;;;;;;;;;5012118;28;20066;-65
2022/10/24 13:58:21;;;;;;;18.00;10.13;;;;;;;;;;5011885;28;20077;-63
2022/10/24 14:00:58;;;;;;;21.40;10.48;;;;;;;;;;5011788;28;20033;-64
2022/10/24 14:03:26;;;;;;;18.85;9.68;;;;;;;;;;5010491;28;20083;-64
2022/10/24 14:05:53;;;;;;;20.13;9.75;;;;;;;;;;5010882;28;20046;-64
2022/10/24 14:08:27;;;;;;;21.38;10.38;;;;;;;;;;5012183;28;20482;-64
2022/10/24 14:10:54;;;;;;;16.77;9.30;;;;;;;;;;5010827;28;20486;-64
2022/10/24 14:13:22;;;;;;;18.77;10.43;;;;;;;;;;5011952;28;20080;-65
2022/10/24 14:15:49;;;;;;;18.77;10.40;;;;;;;;;;5011771;28;20025;-66
2022/10/24 14:18:16;;;;;;;18.70;9.68;;;;;;;;;;5010516;28;20080;-65
2022/10/24 14:20:42;;;;;;;20.27;10.68;;;;;;;;;;5013205;28;20106;-65
2022/10/24 14:23:28;;;;;;;19.20;9.90;;;;;;;;;;5020862;28;20025;-64
2022/10/24 14:26:02;;;;;;;16.60;9.30;;;;;;;;;;5028258;28;20433;-66
2022/10/24 14:28:29;;;;;;;18.42;9.80;;;;;;;;;;5020582;28;20029;-64
2022/10/24 14:31:00;;;;;;;22.95;10.70;;;;;;;;;;5018263;28;20467;-65
2022/10/24 14:33:28;;;;;;;19.42;9.35;;;;;;;;;;5020905;28;20108;-66
2022/10/24 14:35:55;;;;;;;18.80;9.20;;;;;;;;;;5022536;28;20024;-66
2022/10/24 14:38:21;;;;;;;19.08;9.43;;;;;;;;;;5020624;28;20018;-65
2022/10/24 14:40:48;;;;;;;18.58;9.68;;;;;;;;;;5021691;28;20025;-65